sensor_id;sensor_type;location;lat;lon;timestamp;temperature;humidity
3736;DHT22;1883;48.202;16.310;2023-04-25T00:01:59;10.00;61.70
3736;DHT22;1883;48.202;16.310;2023-04-25T00:04:27;10.10;61.80
3736;DHT22;1883;48.202;16.310;2023-04-25T00:06:55;10.00;61.80
3736;DHT22;1883;48.202;16.310;2023-04-25T00:09:23;10.00;61.90
3736;DHT22;1883;48.202;16.310;2023-04-25T00:11:50;10.00;62.00
3736;DHT22;1883;48.202;16.310;2023-04-25T00:14:16;10.00;62.30
3736;DHT22;1883;48.202;16.310;2023-04-25T00:16:43;10.00;62.30
3736;DHT22;1883;48.202;16.310;2023-04-25T00:19:12;10.00;62.40
3736;DHT22;1883;48.202;16.310;2023-04-25T00:21:39;10.00;62.60
3736;DHT22;1883;48.202;16.310;2023-04-25T00:24:07;10.10;62.70
3736;DHT22;1883;48.202;16.310;2023-04-25T00:26:35;10.10;63.00
3736;DHT22;1883;48.202;16.310;2023-04-25T00:29:02;10.10;63.00
3736;DHT22;1883;48.202;16.310;2023-04-25T00:31:33;10.00;62.90
3736;DHT22;1883;48.202;16.310;2023-04-25T00:34:00;9.90;62.90
3736;DHT22;1883;48.202;16.310;2023-04-25T00:36:28;10.00;63.20
3736;DHT22;1883;48.202;16.310;2023-04-25T00:38:56;10.00;63.10
3736;DHT22;1883;48.202;16.310;2023-04-25T00:41:26;10.00;63.10
3736;DHT22;1883;48.202;16.310;2023-04-25T00:43:54;10.00;63.30
3736;DHT22;1883;48.202;16.310;2023-04-25T00:46:22;10.00;63.30
3736;DHT22;1883;48.202;16.310;2023-04-25T00:48:49;9.90;63.20
3736;DHT22;1883;48.202;16.310;2023-04-25T00:51:19;10.00;63.10
3736;DHT22;1883;48.202;16.310;2023-04-25T00:53:49;10.00;63.30
3736;DHT22;1883;48.202;16.310;2023-04-25T00:56:17;9.90;63.30
3736;DHT22;1883;48.202;16.310;2023-04-25T00:58:45;10.10;63.40
3736;DHT22;1883;48.202;16.310;2023-04-25T01:01:13;9.90;63.40
3736;DHT22;1883;48.202;16.310;2023-04-25T01:03:40;9.90;63.50
3736;DHT22;1883;48.202;16.310;2023-04-25T01:06:08;9.90;63.40
3736;DHT22;1883;48.202;16.310;2023-04-25T01:08:37;10.00;63.40
3736;DHT22;1883;48.202;16.310;2023-04-25T01:11:07;10.00;63.50
3736;DHT22;1883;48.202;16.310;2023-04-25T01:13:35;9.90;63.50
3736;DHT22;1883;48.202;16.310;2023-04-25T01:16:03;9.90;63.60
3736;DHT22;1883;48.202;16.310;2023-04-25T01:18:30;9.80;63.60
3736;DHT22;1883;48.202;16.310;2023-04-25T01:21:02;9.90;63.60
3736;DHT22;1883;48.202;16.310;2023-04-25T01:23:32;9.90;63.60
3736;DHT22;1883;48.202;16.310;2023-04-25T01:25:59;9.80;63.60
3736;DHT22;1883;48.202;16.310;2023-04-25T01:28:28;9.80;63.70
3736;DHT22;1883;48.202;16.310;2023-04-25T01:30:57;9.80;64.00
3736;DHT22;1883;48.202;16.310;2023-04-25T01:33:26;9.90;64.00
3736;DHT22;1883;48.202;16.310;2023-04-25T01:35:54;9.80;64.00
3736;DHT22;1883;48.202;16.310;2023-04-25T01:38:24;9.80;64.30
3736;DHT22;1883;48.202;16.310;2023-04-25T01:40:52;9.90;64.20
3736;DHT22;1883;48.202;16.310;2023-04-25T01:43:20;9.80;64.20
3736;DHT22;1883;48.202;16.310;2023-04-25T01:45:49;9.80;64.30
3736;DHT22;1883;48.202;16.310;2023-04-25T01:48:18;9.80;64.30
3736;DHT22;1883;48.202;16.310;2023-04-25T01:50:46;9.90;64.20
3736;DHT22;1883;48.202;16.310;2023-04-25T01:53:13;9.80;64.20
3736;DHT22;1883;48.202;16.310;2023-04-25T01:55:42;9.80;64.40
3736;DHT22;1883;48.202;16.310;2023-04-25T01:58:10;9.90;64.20
3736;DHT22;1883;48.202;16.310;2023-04-25T02:00:38;9.80;64.30
3736;DHT22;1883;48.202;16.310;2023-04-25T02:03:06;9.70;64.30
3736;DHT22;1883;48.202;16.310;2023-04-25T02:05:37;9.70;64.30
3736;DHT22;1883;48.202;16.310;2023-04-25T02:08:05;9.80;64.10
3736;DHT22;1883;48.202;16.310;2023-04-25T02:10:32;9.70;64.10
3736;DHT22;1883;48.202;16.310;2023-04-25T02:13:01;9.70;64.10
3736;DHT22;1883;48.202;16.310;2023-04-25T02:15:28;9.60;64.20
3736;DHT22;1883;48.202;16.310;2023-04-25T02:17:55;9.60;64.10
3736;DHT22;1883;48.202;16.310;2023-04-25T02:20:24;9.60;63.90
3736;DHT22;1883;48.202;16.310;2023-04-25T02:22:51;9.60;63.90
3736;DHT22;1883;48.202;16.310;2023-04-25T02:25:18;9.60;63.90
3736;DHT22;1883;48.202;16.310;2023-04-25T02:27:46;9.60;63.80
3736;DHT22;1883;48.202;16.310;2023-04-25T02:30:14;9.50;63.60
3736;DHT22;1883;48.202;16.310;2023-04-25T02:32:42;9.50;63.60
3736;DHT22;1883;48.202;16.310;2023-04-25T02:35:09;9.40;63.50
3736;DHT22;1883;48.202;16.310;2023-04-25T02:37:38;9.40;63.40
3736;DHT22;1883;48.202;16.310;2023-04-25T02:40:06;9.40;63.40
3736;DHT22;1883;48.202;16.310;2023-04-25T02:42:34;9.30;63.30
3736;DHT22;1883;48.202;16.310;2023-04-25T02:45:11;9.30;63.30
3736;DHT22;1883;48.202;16.310;2023-04-25T02:47:40;9.40;63.30
3736;DHT22;1883;48.202;16.310;2023-04-25T02:50:08;9.30;63.20
3736;DHT22;1883;48.202;16.310;2023-04-25T02:52:36;9.40;63.20
3736;DHT22;1883;48.202;16.310;2023-04-25T02:55:06;9.30;63.20
3736;DHT22;1883;48.202;16.310;2023-04-25T02:57:34;9.20;63.20
3736;DHT22;1883;48.202;16.310;2023-04-25T03:00:01;9.40;63.40
3736;DHT22;1883;48.202;16.310;2023-04-25T03:02:29;9.30;63.30
3736;DHT22;1883;48.202;16.310;2023-04-25T03:05:17;9.30;63.40
3736;DHT22;1883;48.202;16.310;2023-04-25T03:07:45;9.20;63.60
3736;DHT22;1883;48.202;16.310;2023-04-25T03:10:13;9.30;63.60
3736;DHT22;1883;48.202;16.310;2023-04-25T03:12:41;9.20;63.60
3736;DHT22;1883;48.202;16.310;2023-04-25T03:15:16;9.20;63.60
3736;DHT22;1883;48.202;16.310;2023-04-25T03:17:44;9.20;63.50
3736;DHT22;1883;48.202;16.310;2023-04-25T03:20:23;9.20;63.40
3736;DHT22;1883;48.202;16.310;2023-04-25T03:22:50;9.10;63.40
3736;DHT22;1883;48.202;16.310;2023-04-25T03:25:17;9.10;63.20
3736;DHT22;1883;48.202;16.310;2023-04-25T03:27:44;9.10;63.20
3736;DHT22;1883;48.202;16.310;2023-04-25T03:30:11;9.10;63.20
3736;DHT22;1883;48.202;16.310;2023-04-25T03:32:39;9.10;63.20
3736;DHT22;1883;48.202;16.310;2023-04-25T03:35:14;9.00;63.20
3736;DHT22;1883;48.202;16.310;2023-04-25T03:37:44;8.90;63.20
3736;DHT22;1883;48.202;16.310;2023-04-25T03:40:12;9.00;63.20
3736;DHT22;1883;48.202;16.310;2023-04-25T03:42:38;8.90;63.30
3736;DHT22;1883;48.202;16.310;2023-04-25T03:45:07;9.00;63.30
3736;DHT22;1883;48.202;16.310;2023-04-25T03:47:34;8.90;63.30
3736;DHT22;1883;48.202;16.310;2023-04-25T03:50:01;8.80;63.50
3736;DHT22;1883;48.202;16.310;2023-04-25T03:52:28;9.00;63.60
3736;DHT22;1883;48.202;16.310;2023-04-25T03:54:57;9.00;63.60
3736;DHT22;1883;48.202;16.310;2023-04-25T03:57:23;8.90;63.50
3736;DHT22;1883;48.202;16.310;2023-04-25T03:59:50;8.90;63.50
3736;DHT22;1883;48.202;16.310;2023-04-25T04:02:18;8.90;63.60
3736;DHT22;1883;48.202;16.310;2023-04-25T04:04:58;8.80;63.60
3736;DHT22;1883;48.202;16.310;2023-04-25T04:07:39;8.80;63.60
3736;DHT22;1883;48.202;16.310;2023-04-25T04:10:36;8.80;63.70
3736;DHT22;1883;48.202;16.310;2023-04-25T04:13:06;8.80;63.70
3736;DHT22;1883;48.202;16.310;2023-04-25T04:15:47;8.80;63.70
3736;DHT22;1883;48.202;16.310;2023-04-25T04:18:17;8.70;63.70
3736;DHT22;1883;48.202;16.310;2023-04-25T04:21:00;8.70;63.70
3736;DHT22;1883;48.202;16.310;2023-04-25T04:23:32;8.70;63.70
3736;DHT22;1883;48.202;16.310;2023-04-25T04:39:16;8.60;64.10
3736;DHT22;1883;48.202;16.310;2023-04-25T04:45:06;8.60;64.10
3736;DHT22;1883;48.202;16.310;2023-04-25T04:47:48;8.70;64.20
3736;DHT22;1883;48.202;16.310;2023-04-25T04:50:16;8.60;64.20
3736;DHT22;1883;48.202;16.310;2023-04-25T04:52:59;8.60;64.20
3736;DHT22;1883;48.202;16.310;2023-04-25T04:55:42;8.60;64.10
3736;DHT22;1883;48.202;16.310;2023-04-25T04:58:19;8.60;64.10
3736;DHT22;1883;48.202;16.310;2023-04-25T05:01:05;8.50;64.10
3736;DHT22;1883;48.202;16.310;2023-04-25T05:03:35;8.50;64.00
3736;DHT22;1883;48.202;16.310;2023-04-25T05:06:18;8.50;63.90
3736;DHT22;1883;48.202;16.310;2023-04-25T05:09:18;8.50;63.90
3736;DHT22;1883;48.202;16.310;2023-04-25T06:46:50;11.10;68.80
3736;DHT22;1883;48.202;16.310;2023-04-25T06:49:31;11.20;68.80
3736;DHT22;1883;48.202;16.310;2023-04-25T06:52:29;11.20;69.10
3736;DHT22;1883;48.202;16.310;2023-04-25T06:55:10;11.30;69.20
3736;DHT22;1883;48.202;16.310;2023-04-25T06:57:51;11.40;69.50
3736;DHT22;1883;48.202;16.310;2023-04-25T07:00:46;11.50;69.60
3736;DHT22;1883;48.202;16.310;2023-04-25T11:34:52;13.80;71.80
3736;DHT22;1883;48.202;16.310;2023-04-25T11:37:24;12.10;68.40
3736;DHT22;1883;48.202;16.310;2023-04-25T11:40:08;10.80;66.10
3736;DHT22;1883;48.202;16.310;2023-04-25T11:42:38;10.20;63.80
3736;DHT22;1883;48.202;16.310;2023-04-25T11:45:15;10.20;61.30
3736;DHT22;1883;48.202;16.310;2023-04-25T11:47:56;10.00;59.50
3736;DHT22;1883;48.202;16.310;2023-04-25T11:50:41;10.10;57.90
3736;DHT22;1883;48.202;16.310;2023-04-25T11:53:21;10.20;56.90
3736;DHT22;1883;48.202;16.310;2023-04-25T11:55:50;10.20;55.40
3736;DHT22;1883;48.202;16.310;2023-04-25T11:58:19;10.30;53.80
3736;DHT22;1883;48.202;16.310;2023-04-25T12:01:01;10.50;53.70
3736;DHT22;1883;48.202;16.310;2023-04-25T12:03:45;10.80;54.60
3736;DHT22;1883;48.202;16.310;2023-04-25T12:09:40;12.00;53.90
3736;DHT22;1883;48.202;16.310;2023-04-25T12:12:10;13.10;56.80
3736;DHT22;1883;48.202;16.310;2023-04-25T12:14:47;14.00;59.50
3736;DHT22;1883;48.202;16.310;2023-04-25T12:17:15;14.60;64.50
3736;DHT22;1883;48.202;16.310;2023-04-25T12:19:47;14.90;66.10
3736;DHT22;1883;48.202;16.310;2023-04-25T12:22:21;15.30;68.50
3736;DHT22;1883;48.202;16.310;2023-04-25T12:24:50;15.30;69.70
3736;DHT22;1883;48.202;16.310;2023-04-25T12:27:18;15.40;70.60
3736;DHT22;1883;48.202;16.310;2023-04-25T12:29:51;15.60;70.50
3736;DHT22;1883;48.202;16.310;2023-04-25T12:32:19;15.80;71.60
3736;DHT22;1883;48.202;16.310;2023-04-25T12:34:46;15.60;72.30
3736;DHT22;1883;48.202;16.310;2023-04-25T12:37:13;15.60;71.80
3736;DHT22;1883;48.202;16.310;2023-04-25T12:39:40;15.90;72.10
3736;DHT22;1883;48.202;16.310;2023-04-25T12:42:10;16.30;72.50
3736;DHT22;1883;48.202;16.310;2023-04-25T12:44:38;16.20;73.40
3736;DHT22;1883;48.202;16.310;2023-04-25T12:47:05;16.40;73.80
3736;DHT22;1883;48.202;16.310;2023-04-25T12:49:32;16.40;73.70
3736;DHT22;1883;48.202;16.310;2023-04-25T12:52:00;15.70;73.60
3736;DHT22;1883;48.202;16.310;2023-04-25T12:54:26;14.80;73.20
3736;DHT22;1883;48.202;16.310;2023-04-25T12:56:54;15.20;72.90
3736;DHT22;1883;48.202;16.310;2023-04-25T12:59:22;16.10;73.60
3736;DHT22;1883;48.202;16.310;2023-04-25T13:01:49;16.70;74.30
3736;DHT22;1883;48.202;16.310;2023-04-25T13:04:16;16.90;74.90
3736;DHT22;1883;48.202;16.310;2023-04-25T13:06:45;17.10;75.10
3736;DHT22;1883;48.202;16.310;2023-04-25T13:09:13;17.20;75.60
3736;DHT22;1883;48.202;16.310;2023-04-25T13:11:44;17.60;75.60
3736;DHT22;1883;48.202;16.310;2023-04-25T13:14:11;18.00;76.00
3736;DHT22;1883;48.202;16.310;2023-04-25T13:16:41;17.80;76.50
3736;DHT22;1883;48.202;16.310;2023-04-25T13:19:09;18.40;76.40
3736;DHT22;1883;48.202;16.310;2023-04-25T13:21:37;18.30;76.80
3736;DHT22;1883;48.202;16.310;2023-04-25T13:24:06;18.40;77.00
3736;DHT22;1883;48.202;16.310;2023-04-25T13:26:34;18.50;77.20
3736;DHT22;1883;48.202;16.310;2023-04-25T13:29:03;18.20;77.70
3736;DHT22;1883;48.202;16.310;2023-04-25T13:31:34;18.10;77.70
3736;DHT22;1883;48.202;16.310;2023-04-25T13:37:41;18.10;78.10
3736;DHT22;1883;48.202;16.310;2023-04-25T13:40:17;17.70;77.50
3736;DHT22;1883;48.202;16.310;2023-04-25T13:43:03;18.00;77.90
3736;DHT22;1883;48.202;16.310;2023-04-25T13:46:05;17.80;78.40
3736;DHT22;1883;48.202;16.310;2023-04-25T13:49:09;17.40;77.80
3736;DHT22;1883;48.202;16.310;2023-04-25T13:51:54;17.00;77.10
3736;DHT22;1883;48.202;16.310;2023-04-25T22:52:32;8.70;60.50
3736;DHT22;1883;48.202;16.310;2023-04-25T22:55:15;8.70;60.10
3736;DHT22;1883;48.202;16.310;2023-04-25T22:57:56;8.80;60.70
3736;DHT22;1883;48.202;16.310;2023-04-25T23:00:47;8.80;60.80
3736;DHT22;1883;48.202;16.310;2023-04-25T23:03:31;8.70;60.80
3736;DHT22;1883;48.202;16.310;2023-04-25T23:06:13;8.70;61.10
3736;DHT22;1883;48.202;16.310;2023-04-25T23:09:12;8.70;61.90
3736;DHT22;1883;48.202;16.310;2023-04-25T23:11:41;8.70;62.80
3736;DHT22;1883;48.202;16.310;2023-04-25T23:14:24;8.70;63.30
3736;DHT22;1883;48.202;16.310;2023-04-25T23:17:10;8.70;64.20
3736;DHT22;1883;48.202;16.310;2023-04-25T23:19:51;8.70;64.80
3736;DHT22;1883;48.202;16.310;2023-04-25T23:22:33;8.70;65.30
3736;DHT22;1883;48.202;16.310;2023-04-25T23:25:19;8.70;65.50
3736;DHT22;1883;48.202;16.310;2023-04-25T23:28:01;8.70;65.30
3736;DHT22;1883;48.202;16.310;2023-04-25T23:30:44;8.70;65.40
3736;DHT22;1883;48.202;16.310;2023-04-25T23:33:27;8.70;65.40
3736;DHT22;1883;48.202;16.310;2023-04-25T23:36:15;8.70;65.40
3736;DHT22;1883;48.202;16.310;2023-04-25T23:38:44;8.60;65.60
3736;DHT22;1883;48.202;16.310;2023-04-25T23:41:35;8.60;65.60
3736;DHT22;1883;48.202;16.310;2023-04-25T23:44:16;8.60;65.80
3736;DHT22;1883;48.202;16.310;2023-04-25T23:46:43;8.50;65.90
3736;DHT22;1883;48.202;16.310;2023-04-25T23:49:10;8.50;66.10
3736;DHT22;1883;48.202;16.310;2023-04-25T23:51:37;8.40;66.40
3736;DHT22;1883;48.202;16.310;2023-04-25T23:54:04;8.40;66.60
3736;DHT22;1883;48.202;16.310;2023-04-25T23:56:32;8.40;66.60
3736;DHT22;1883;48.202;16.310;2023-04-25T23:58:59;8.40;66.60
